Time;durP1;ratioP1;P1;durP2;ratioP2;P2;SDS_P1;SDS_P2;PMS_P1;PMS_P2;Temp;Humidity;BMP_temperature;BMP_pressure;BME280_temperature;BME280_humidity;BME280_pressure;Samples;Min_cycle;Max_cycle;Signal;HPM_P1;HPM_P2
2023/04/17 06:02:30;;;;;;;;;4.25;4.25;;;;;18.06;47.07;102142.59;5113140;27;45739;-70
2023/04/17 06:04:57;;;;;;;;;5.25;5.25;;;;;18.61;48.05;102143.53;5103390;27;45579;-70
2023/04/17 06:07:22;;;;;;;;;8.50;5.75;;;;;19.32;47.91;102134.34;5104019;27;45491;-68
2023/04/17 06:09:48;;;;;;;;;4.00;3.00;;;;;20.26;47.77;102145.72;5103065;27;45444;-68
2023/04/17 06:12:14;;;;;;;;;4.00;4.00;;;;;21.07;47.38;102136.19;5095139;27;45423;-68
2023/04/17 06:14:40;;;;;;;;;5.00;5.00;;;;;21.81;47.13;102131.41;5094161;27;45579;-68
2023/04/17 06:17:05;;;;;;;;;4.67;4.00;;;;;22.48;46.78;102139.53;5094383;27;45887;-68
2023/04/17 06:19:31;;;;;;;;;4.00;4.00;;;;;23.04;46.04;102134.88;5105135;27;45334;-67
2023/04/17 06:21:56;;;;;;;;;5.00;4.00;;;;;23.47;45.53;102133.06;5106245;27;61397;-68
2023/04/17 06:24:21;;;;;;;;;5.67;5.00;;;;;23.89;45.09;102142.94;5095480;27;45524;-68
2023/04/17 06:26:47;;;;;;;;;6.67;5.00;;;;;24.24;44.72;102135.38;5108623;27;45831;-69
2023/04/17 06:29:14;;;;;;;;;6.33;6.33;;;;;24.54;44.54;102132.69;5106529;27;45392;-69
2023/04/17 06:31:39;;;;;;;;;7.67;4.33;;;;;24.81;43.65;102140.09;5108615;27;45708;-69
2023/04/17 06:34:04;;;;;;;;;4.67;4.67;;;;;25.08;43.44;102149.41;5107276;27;45461;-69
2023/04/17 06:36:30;;;;;;;;;6.67;6.00;;;;;25.29;43.15;102144.81;5108229;27;45470;-69
2023/04/17 06:38:55;;;;;;;;;10.33;7.67;;;;;25.48;42.57;102141.16;5108930;27;45413;-70
2023/04/17 06:41:21;;;;;;;;;5.00;5.00;;;;;25.64;42.47;102146.00;5111349;27;49504;-70
2023/04/17 06:43:46;;;;;;;;;6.00;6.00;;;;;25.75;42.35;102142.25;5101169;27;45430;-69
2023/04/17 06:46:11;;;;;;;;;6.33;5.00;;;;;25.87;41.91;102141.03;5102896;27;45421;-70
2023/04/17 06:48:37;;;;;;;;;7.00;4.67;;;;;25.97;41.40;102146.44;5108534;27;45461;-69
2023/04/17 06:51:02;;;;;;;;;7.67;5.67;;;;;26.07;41.03;102154.53;5106170;27;46945;-69
2023/04/17 06:53:27;;;;;;;;;5.33;5.33;;;;;26.15;41.37;102151.91;5102559;27;45469;-71
2023/04/17 06:55:53;;;;;;;;;8.00;6.33;;;;;26.19;40.59;102152.47;5099482;27;45612;-72
2023/04/17 06:58:18;;;;;;;;;8.33;7.00;;;;;26.27;41.04;102159.88;5106504;27;45504;-71
2023/04/17 07:00:44;;;;;;;;;8.00;6.00;;;;;26.29;40.45;102150.56;5109441;27;47767;-71
2023/04/17 07:03:10;;;;;;;;;11.33;7.67;;;;;26.40;40.68;102157.66;5098852;27;45423;-71
2023/04/17 07:05:35;;;;;;;;;6.00;6.00;;;;;26.48;40.07;102159.59;5108105;27;45502;-69
2023/04/17 07:08:00;;;;;;;;;7.00;7.00;;;;;26.53;39.73;102157.28;5104129;27;45690;-69
2023/04/17 07:10:25;;;;;;;;;4.33;4.33;;;;;26.58;39.93;102160.38;5110951;27;45449;-69
2023/04/17 07:12:51;;;;;;;;;5.67;5.67;;;;;26.68;39.51;102173.06;5097171;27;45533;-70
2023/04/17 07:15:16;;;;;;;;;7.67;6.00;;;;;26.72;39.32;102177.19;5094165;27;45413;-70
2023/04/17 07:17:41;;;;;;;;;5.00;4.33;;;;;26.76;39.61;102177.75;5089491;27;45578;-70
2023/04/17 07:20:07;;;;;;;;;4.67;4.67;;;;;26.81;39.38;102181.72;5084568;27;64971;-71
2023/04/17 07:22:35;;;;;;;;;8.33;7.67;;;;;26.87;38.86;102182.97;5079233;27;45537;-68
2023/04/17 07:25:01;;;;;;;;;5.33;5.33;;;;;26.93;38.86;102186.94;5089466;27;45498;-70
2023/04/17 07:27:26;;;;;;;;;7.33;6.00;;;;;27.00;39.07;102176.28;5092689;27;45504;-73
2023/04/17 07:29:53;;;;;;;;;5.33;5.33;;;;;27.07;38.87;102185.53;5091364;27;46280;-74
2023/04/17 07:32:19;;;;;;;;;7.00;6.00;;;;;27.11;38.18;102186.94;5089437;27;45479;-73
2023/04/17 07:34:46;;;;;;;;;5.67;5.67;;;;;27.17;38.13;102193.59;5088728;27;45820;-73
2023/04/17 07:37:11;;;;;;;;;8.33;6.33;;;;;27.21;38.52;102187.69;5085593;27;45848;-73
2023/04/17 07:39:37;;;;;;;;;7.00;7.00;;;;;27.25;38.17;102188.22;5083943;27;46198;-71
2023/04/17 07:42:05;;;;;;;;;9.67;8.00;;;;;27.30;38.21;102195.94;5092148;27;45454;-71
2023/04/17 07:44:31;;;;;;;;;6.00;6.00;;;;;27.31;37.55;102187.63;5090561;27;45436;-72
2023/04/17 07:46:56;;;;;;;;;7.33;7.33;;;;;27.31;37.92;102201.25;5090682;27;45304;-70
2023/04/17 07:49:22;;;;;;;;;11.00;8.67;;;;;27.30;37.72;102202.22;5073859;27;47166;-70
2023/04/17 07:51:47;;;;;;;;;9.67;9.00;;;;;27.28;37.20;102207.00;5093052;27;50489;-72
2023/04/17 07:54:12;;;;;;;;;13.33;12.67;;;;;27.21;37.37;102198.59;5092364;27;45722;-72
2023/04/17 07:56:38;;;;;;;;;11.67;11.67;;;;;27.20;36.85;102204.19;5092096;27;45362;-70
2023/04/17 07:59:04;;;;;;;;;13.00;13.00;;;;;27.17;37.50;102199.94;5090845;27;46110;-70
2023/04/17 08:01:30;;;;;;;;;17.00;15.67;;;;;27.14;37.00;102200.22;5085412;27;45425;-70
2023/04/17 08:03:56;;;;;;;;;14.33;12.67;;;;;27.13;37.18;102203.97;5091159;27;45394;-70
2023/04/17 08:06:22;;;;;;;;;17.33;14.00;;;;;27.13;37.26;102216.75;5092415;27;45505;-70
2023/04/17 08:08:47;;;;;;;;;16.00;15.33;;;;;27.12;37.31;102205.00;5089569;27;46026;-70
2023/04/17 08:11:13;;;;;;;;;16.67;13.33;;;;;27.14;36.55;102202.94;5090861;27;45739;-70
2023/04/17 08:13:39;;;;;;;;;14.00;14.00;;;;;27.14;36.48;102197.50;5089432;27;45476;-74
2023/04/17 08:16:04;;;;;;;;;13.33;13.33;;;;;27.13;37.05;102203.97;5086969;27;45380;-74
2023/04/17 08:18:31;;;;;;;;;12.00;10.67;;;;;27.15;36.38;102201.97;5090802;27;46340;-76
2023/04/17 08:20:56;;;;;;;;;13.33;9.67;;;;;27.18;36.71;102207.09;5088562;27;45561;-74
2023/04/17 08:23:21;;;;;;;;;11.33;11.00;;;;;27.22;36.27;102203.03;5085826;27;45467;-74
2023/04/17 08:25:46;;;;;;;;;9.67;9.00;;;;;27.26;36.11;102211.72;5085554;27;45436;-73
2023/04/17 08:28:12;;;;;;;;;9.00;8.67;;;;;27.31;36.03;102205.81;5092436;27;45390;-72
2023/04/17 08:30:37;;;;;;;;;10.00;10.00;;;;;27.32;35.81;102208.41;5081497;27;55237;-73
2023/04/17 08:33:02;;;;;;;;;9.00;7.67;;;;;27.36;36.08;102200.75;5088726;27;45844;-73
2023/04/17 08:35:28;;;;;;;;;10.33;10.33;;;;;27.39;35.98;102200.44;5090585;27;48371;-72
2023/04/17 08:37:55;;;;;;;;;9.00;6.67;;;;;27.40;36.48;102198.56;5089464;27;45746;-75
2023/04/17 08:40:22;;;;;;;;;9.67;9.67;;;;;27.49;35.84;102211.22;5087068;27;45454;-73
2023/04/17 08:42:49;;;;;;;;;9.00;8.67;;;;;27.49;36.08;102212.09;5090629;27;45476;-72
2023/04/17 08:45:14;;;;;;;;;8.67;6.00;;;;;27.52;35.91;102208.19;5086041;27;45734;-73
2023/04/17 08:47:41;;;;;;;;;11.00;9.00;;;;;27.56;35.44;102214.16;5092931;27;46064;-74
2023/04/17 08:50:09;;;;;;;;;8.33;6.67;;;;;27.57;35.90;102204.97;5089892;27;45400;-77
2023/04/17 08:52:41;;;;;;;;;10.00;10.00;;;;;27.60;35.93;102208.28;5085181;27;45615;-75
2023/04/17 08:55:12;;;;;;;;;8.33;8.33;;;;;27.62;35.44;102205.38;5094180;27;45656;-78
2023/04/17 08:58:03;;;;;;;;;11.00;9.33;;;;;27.64;34.99;102211.53;5087281;27;46041;-73
2023/04/17 09:00:42;;;;;;;;;7.33;7.33;;;;;27.64;35.71;102197.91;5082646;27;45400;-72
2023/04/17 09:03:13;;;;;;;;;11.00;8.33;;;;;27.65;35.60;102201.47;5090817;27;45485;-75
2023/04/17 09:05:47;;;;;;;;;8.33;8.33;;;;;27.67;35.58;102203.00;5092665;27;45321;-73
2023/04/17 09:08:14;;;;;;;;;9.67;8.67;;;;;27.72;35.22;102197.91;5082343;27;47070;-74
2023/04/17 09:10:44;;;;;;;;;7.00;5.67;;;;;27.78;34.83;102195.59;5092019;27;45311;-74
2023/04/17 09:13:13;;;;;;;;;9.33;8.33;;;;;27.82;35.45;102200.53;5088504;27;45463;-73
2023/04/17 09:15:39;;;;;;;;;8.33;8.33;;;;;27.88;35.46;102193.59;5089424;27;45455;-73
2023/04/17 09:18:19;;;;;;;;;8.67;8.67;;;;;27.93;34.83;102201.28;5087300;27;45529;-73
2023/04/17 09:20:50;;;;;;;;;9.33;9.33;;;;;27.96;34.62;102192.78;5091972;27;45455;-75
2023/04/17 09:23:15;;;;;;;;;9.00;9.00;;;;;28.00;34.76;102194.16;5089484;27;45523;-74
2023/04/17 09:25:40;;;;;;;;;9.00;9.00;;;;;28.03;34.81;102191.06;5087906;27;45414;-74
2023/04/17 09:28:12;;;;;;;;;7.67;7.67;;;;;28.07;34.38;102191.63;5091211;27;45532;-72
2023/04/17 09:30:38;;;;;;;;;10.67;7.00;;;;;28.09;34.46;102195.03;5091581;27;45450;-73
2023/04/17 09:33:05;;;;;;;;;9.33;6.00;;;;;28.08;34.65;102187.88;5093118;27;45617;-71
2023/04/17 09:35:30;;;;;;;;;9.00;8.67;;;;;28.09;34.33;102189.56;5089255;27;45485;-72
2023/04/17 09:37:58;;;;;;;;;9.00;9.00;;;;;28.06;34.54;102188.03;5092589;27;46099;-73
2023/04/17 09:40:24;;;;;;;;;6.67;6.67;;;;;28.07;34.36;102192.47;5091058;27;45494;-74
2023/04/17 09:43:03;;;;;;;;;9.00;9.00;;;;;28.08;34.66;102185.16;5093116;27;45449;-73
2023/04/17 09:45:40;;;;;;;;;13.00;9.00;;;;;28.05;34.88;102183.59;5088359;27;45515;-73
2023/04/17 09:48:12;;;;;;;;;9.67;8.00;;;;;28.07;34.83;102188.91;5091765;27;46154;-73
2023/04/17 09:50:38;;;;;;;;;7.67;7.67;;;;;28.07;34.79;102176.09;5090589;27;45599;-73
2023/04/17 09:53:05;;;;;;;;;8.67;8.33;;;;;28.07;34.30;102181.53;5092033;27;45373;-75
2023/04/17 09:55:32;;;;;;;;;7.33;7.33;;;;;28.06;34.33;102178.97;5092305;27;45719;-74
2023/04/17 09:57:59;;;;;;;;;7.67;7.67;;;;;28.02;34.21;102182.06;5090086;27;45553;-76
2023/04/17 10:00:26;;;;;;;;;8.00;8.00;;;;;27.97;33.94;102184.44;5090307;27;45480;-70
2023/04/17 10:02:52;;;;;;;;;10.67;10.67;;;;;27.90;33.86;102188.81;5079182;27;45574;-69
2023/04/17 10:05:19;;;;;;;;;11.33;8.00;;;;;27.87;34.52;102189.13;5092131;27;45490;-70
2023/04/17 10:07:45;;;;;;;;;8.33;8.33;;;;;27.87;34.53;102192.72;5086715;27;45377;-69
2023/04/17 10:10:20;;;;;;;;;9.33;9.33;;;;;27.86;34.69;102182.84;5089901;27;45441;-71
2023/04/17 10:12:48;;;;;;;;;8.00;8.00;;;;;27.88;34.03;102188.97;5090985;27;45401;-72
2023/04/17 10:15:15;;;;;;;;;9.00;9.00;;;;;27.89;33.95;102184.38;5088159;27;45711;-70
2023/04/17 10:17:40;;;;;;;;;7.00;7.00;;;;;27.91;34.38;102185.06;5087043;27;45332;-70
2023/04/17 10:20:18;;;;;;;;;9.67;9.33;;;;;27.93;34.37;102184.91;5081133;27;45514;-70
2023/04/17 10:22:53;;;;;;;;;10.00;8.67;;;;;27.91;34.26;102185.06;5088724;27;45761;-70
2023/04/17 10:25:21;;;;;;;;;7.00;7.00;;;;;27.95;34.16;102185.59;5088502;27;45654;-72
2023/04/17 10:27:49;;;;;;;;;9.00;9.00;;;;;27.93;34.21;102185.78;5089273;27;46363;-70
2023/04/17 10:30:15;;;;;;;;;10.00;10.00;;;;;27.95;34.16;102189.19;5091764;27;45488;-71
2023/04/17 10:33:12;;;;;;;;;10.33;9.33;;;;;27.96;34.09;102190.88;5096407;27;45557;-71
2023/04/17 10:35:37;;;;;;;;;9.00;8.67;;;;;27.93;33.99;102182.16;5090825;27;45908;-70
2023/04/17 10:38:05;;;;;;;;;9.00;8.67;;;;;27.96;33.77;102190.03;5088536;27;46097;-70
2023/04/17 10:40:33;;;;;;;;;8.00;8.00;;;;;27.96;33.89;102179.13;5083871;27;45422;-70
2023/04/17 10:43:05;;;;;;;;;11.67;9.00;;;;;27.96;34.18;102182.69;5091795;27;45460;-70
2023/04/17 10:45:52;;;;;;;;;12.00;10.67;;;;;27.97;34.48;102172.66;5077349;27;45995;-71
2023/04/17 10:48:26;;;;;;;;;8.33;8.00;;;;;27.90;33.82;102166.97;5089767;27;46083;-70
2023/04/17 10:50:53;;;;;;;;;9.67;9.33;;;;;27.96;33.75;102169.06;5091766;27;46344;-70
2023/04/17 10:53:38;;;;;;;;;11.00;9.67;;;;;27.98;33.94;102171.63;5094715;27;45516;-74
2023/04/17 10:56:04;;;;;;;;;8.00;7.67;;;;;27.96;33.74;102163.59;5085120;27;45461;-75
2023/04/17 10:58:29;;;;;;;;;7.00;6.33;;;;;27.95;33.94;102166.50;5089170;27;46950;-74
2023/04/17 11:00:55;;;;;;;;;11.00;9.33;;;;;27.87;33.47;102164.56;5085872;27;45543;-75
2023/04/17 11:03:24;;;;;;;;;10.00;10.00;;;;;27.82;33.90;102164.22;5083528;27;45524;-75
2023/04/17 11:05:51;;;;;;;;;9.00;9.00;;;;;27.76;33.68;102168.47;5082806;27;45524;-75
2023/04/17 11:08:16;;;;;;;;;10.00;9.00;;;;;27.68;34.00;102163.84;5082514;27;46492;-74
2023/04/17 11:10:42;;;;;;;;;10.00;9.00;;;;;27.62;33.67;102154.41;5082648;27;45913;-75
2023/04/17 11:13:08;;;;;;;;;10.67;10.67;;;;;27.55;33.80;102158.75;5081371;27;45440;-75
2023/04/17 11:15:34;;;;;;;;;10.00;8.67;;;;;27.50;33.87;102161.13;5082674;27;45532;-74
2023/04/17 11:18:01;;;;;;;;;10.00;10.00;;;;;27.44;33.18;102153.59;5080124;27;45922;-74
2023/04/17 11:20:32;;;;;;;;;9.00;9.00;;;;;27.37;33.32;102153.38;5085637;27;45646;-74
2023/04/17 11:23:02;;;;;;;;;11.00;11.00;;;;;27.36;33.45;102163.44;5085651;27;45618;-75
2023/04/17 11:25:30;;;;;;;;;12.67;12.67;;;;;27.33;33.63;102146.53;5086979;27;45504;-72
2023/04/17 11:27:57;;;;;;;;;13.00;11.00;;;;;27.31;33.01;102152.19;5086474;27;46206;-72
2023/04/17 11:30:43;;;;;;;;;10.67;10.67;;;;;27.30;33.70;102139.53;5093574;27;45454;-71
2023/04/17 11:33:11;;;;;;;;;15.00;12.00;;;;;27.33;33.25;102138.38;5098300;27;45484;-69
2023/04/17 11:35:38;;;;;;;;;9.33;9.33;;;;;27.38;33.87;102146.91;5095357;27;45885;-72
2023/04/17 11:38:11;;;;;;;;;13.00;10.67;;;;;27.42;33.48;102142.84;5094651;27;45728;-71
2023/04/17 11:40:53;;;;;;;;;13.67;10.67;;;;;27.43;33.56;102127.34;5087497;27;45402;-72
2023/04/17 11:43:20;;;;;;;;;10.67;9.33;;;;;27.50;33.79;102139.31;5091677;27;45838;-73
2023/04/17 11:45:48;;;;;;;;;13.67;12.33;;;;;27.54;33.07;102137.13;5094944;27;45473;-73
2023/04/17 11:48:15;;;;;;;;;14.00;11.00;;;;;27.57;33.17;102144.97;5091658;27;46733;-73
2023/04/17 11:50:43;;;;;;;;;11.00;11.00;;;;;27.59;32.97;102137.50;5095042;27;45421;-72
2023/04/17 11:53:13;;;;;;;;;8.67;8.67;;;;;27.60;33.61;102133.78;5095120;27;45490;-72
2023/04/17 11:55:38;;;;;;;;;10.67;10.67;;;;;27.64;33.59;102148.81;5094534;27;45375;-72
2023/04/17 11:58:06;;;;;;;;;10.67;10.00;;;;;27.65;33.40;102127.81;5093743;27;54544;-72
2023/04/17 12:00:32;;;;;;;;;13.33;11.00;;;;;27.70;33.12;102139.09;5082018;27;45671;-72
2023/04/17 12:03:00;;;;;;;;;12.67;12.33;;;;;27.73;32.97;102138.78;5092812;27;45622;-71
2023/04/17 12:05:27;;;;;;;;;11.67;11.67;;;;;27.75;33.62;102137.59;5093694;27;45352;-72
2023/04/17 12:08:01;;;;;;;;;9.33;9.33;;;;;27.78;33.30;102143.75;5094520;27;46390;-71
2023/04/17 12:10:35;;;;;;;;;9.67;8.67;;;;;27.80;32.95;102138.97;5093199;27;45562;-71
2023/04/17 12:13:01;;;;;;;;;14.67;12.33;;;;;27.82;33.10;102140.53;5093498;27;45463;-72
2023/04/17 12:15:26;;;;;;;;;9.33;9.33;;;;;27.81;33.69;102136.09;5094473;27;45433;-72
2023/04/17 12:17:51;;;;;;;;;12.33;11.00;;;;;27.84;33.47;102145.81;5087938;27;56150;-72
2023/04/17 12:20:17;;;;;;;;;9.33;8.67;;;;;27.85;33.79;102142.94;5090028;27;45508;-72
2023/04/17 12:22:42;;;;;;;;;9.33;9.33;;;;;27.87;33.56;102150.94;5093439;27;45351;-72
2023/04/17 12:25:07;;;;;;;;;11.67;11.33;;;;;27.88;33.62;102141.75;5094144;27;48567;-76
2023/04/17 12:27:36;;;;;;;;;10.33;10.33;;;;;27.88;33.43;102149.94;5094219;27;45417;-72
2023/04/17 12:30:01;;;;;;;;;11.33;9.67;;;;;27.86;33.43;102151.97;5089424;27;45303;-72
2023/04/17 12:32:27;;;;;;;;;10.00;10.00;;;;;27.83;33.00;102149.59;5094503;27;46017;-72
2023/04/17 12:34:52;;;;;;;;;11.00;11.00;;;;;27.81;32.80;102144.28;5093641;27;45453;-73
2023/04/17 12:37:17;;;;;;;;;10.33;10.33;;;;;27.82;33.48;102147.84;5093303;27;60080;-73
2023/04/17 12:39:43;;;;;;;;;10.67;10.00;;;;;27.81;33.38;102140.69;5093190;27;45397;-72
2023/04/17 12:42:08;;;;;;;;;10.00;9.00;;;;;27.84;32.84;102154.84;5089905;27;45656;-73
2023/04/17 12:44:33;;;;;;;;;12.67;11.33;;;;;27.81;33.50;102154.31;5094989;27;45451;-72
2023/04/17 12:46:59;;;;;;;;;10.33;10.33;;;;;27.83;32.90;102155.88;5093413;27;45634;-74
2023/04/17 12:49:24;;;;;;;;;12.33;12.33;;;;;27.85;33.50;102152.97;5093499;27;45456;-73
2023/04/17 12:51:50;;;;;;;;;11.00;11.00;;;;;27.85;33.24;102161.16;5093881;27;45379;-72
2023/04/17 12:54:15;;;;;;;;;10.67;9.00;;;;;27.83;33.35;102152.31;5097124;27;45550;-74
2023/04/17 12:56:40;;;;;;;;;11.00;10.33;;;;;27.80;32.72;102141.72;5091826;27;59254;-77
2023/04/17 12:59:06;;;;;;;;;9.67;8.67;;;;;27.85;33.02;102142.94;5089018;27;45512;-75
2023/04/17 13:01:31;;;;;;;;;11.00;10.00;;;;;27.83;33.27;102142.22;5093406;27;45451;-76
2023/04/17 13:03:56;;;;;;;;;9.67;9.67;;;;;27.87;33.29;102142.75;5093030;27;45489;-72
2023/04/17 13:06:21;;;;;;;;;10.00;9.33;;;;;27.85;32.72;102140.22;5086166;27;54155;-73
2023/04/17 13:08:47;;;;;;;;;10.00;10.00;;;;;27.86;32.63;102135.59;5090757;27;48368;-73
2023/04/17 13:11:12;;;;;;;;;15.67;11.67;;;;;27.87;32.97;102135.44;5078783;27;46159;-74
2023/04/17 13:13:37;;;;;;;;;10.67;9.67;;;;;27.82;32.66;102121.44;5091460;27;47632;-74
2023/04/17 13:16:03;;;;;;;;;9.33;8.00;;;;;27.89;32.70;102121.63;5092801;27;57117;-73
2023/04/17 13:18:28;;;;;;;;;10.00;9.33;;;;;27.95;32.86;102128.31;5081510;27;45704;-78
2023/04/17 13:20:54;;;;;;;;;10.33;9.33;;;;;28.04;32.99;102131.91;5091657;27;45503;-75
2023/04/17 13:23:20;;;;;;;;;9.67;9.67;;;;;28.08;33.06;102127.84;5087700;27;45739;-74
2023/04/17 13:25:46;;;;;;;;;7.67;6.67;;;;;28.17;33.17;102128.69;5090847;27;47179;-75
2023/04/17 13:28:11;;;;;;;;;13.33;11.00;;;;;28.24;33.21;102127.88;5093471;27;45399;-75
2023/04/17 13:30:36;;;;;;;;;7.00;7.00;;;;;28.31;32.75;102127.25;5086838;27;45447;-76
2023/04/17 13:33:02;;;;;;;;;8.67;8.67;;;;;28.34;33.29;102116.84;5092664;27;45590;-78
2023/04/17 13:35:27;;;;;;;;;12.00;10.33;;;;;28.42;33.36;102121.44;5092838;27;46139;-79
2023/04/17 13:37:53;;;;;;;;;12.67;10.33;;;;;28.52;32.96;102124.88;5093289;27;45528;-77
2023/04/17 13:40:19;;;;;;;;;11.33;10.00;;;;;28.57;33.33;102132.53;5091854;27;45446;-75
2023/04/17 13:42:44;;;;;;;;;11.00;10.00;;;;;28.59;33.08;102111.38;5087388;27;45472;-77
2023/04/17 13:45:11;;;;;;;;;8.00;7.67;;;;;28.61;32.54;102111.22;5091339;27;45929;-77
2023/04/17 13:47:36;;;;;;;;;8.33;8.33;;;;;28.63;33.18;102118.22;5091166;27;45459;-76
2023/04/17 13:50:01;;;;;;;;;14.00;12.00;;;;;28.67;33.00;102121.47;5090545;27;45423;-77
2023/04/17 13:52:27;;;;;;;;;13.67;11.67;;;;;28.71;33.45;102117.38;5092143;27;45574;-76
2023/04/17 13:54:52;;;;;;;;;12.00;11.00;;;;;28.71;33.29;102122.84;5079362;27;46408;-75
2023/04/17 13:57:17;;;;;;;;;9.33;8.67;;;;;28.70;32.52;102123.00;5089067;27;46003;-74
2023/04/17 13:59:43;;;;;;;;;9.67;9.00;;;;;28.71;32.85;102113.78;5090063;27;46268;-74
2023/04/17 14:02:08;;;;;;;;;11.00;10.00;;;;;28.70;32.85;102106.59;5092752;27;45696;-74
2023/04/17 14:04:34;;;;;;;;;9.33;9.33;;;;;28.70;33.00;102103.88;5082626;27;57026;-75
2023/04/17 14:06:59;;;;;;;;;10.00;9.33;;;;;28.70;33.09;102112.06;5093133;27;45493;-73
2023/04/17 14:09:24;;;;;;;;;10.33;10.00;;;;;28.70;32.81;102101.16;5085740;27;45919;-75
2023/04/17 14:11:50;;;;;;;;;11.00;11.00;;;;;28.71;32.83;102094.66;5081614;27;45393;-76
2023/04/17 14:14:15;;;;;;;;;10.33;7.33;;;;;28.80;32.90;102110.00;5080469;27;50571;-73
2023/04/17 14:16:42;;;;;;;;;12.00;10.00;;;;;28.83;32.65;102111.53;5092964;27;45338;-76
2023/04/17 14:19:07;;;;;;;;;7.67;7.33;;;;;28.87;32.81;102100.13;5086569;27;45629;-73
2023/04/17 14:21:36;;;;;;;;;13.00;10.00;;;;;28.87;32.86;102096.53;5090899;27;45628;-75
2023/04/17 14:24:02;;;;;;;;;9.33;9.33;;;;;28.91;32.78;102095.19;5089457;27;45452;-70
2023/04/17 14:26:27;;;;;;;;;10.67;10.67;;;;;28.86;32.35;102087.50;5087581;27;45532;-72
2023/04/17 14:28:53;;;;;;;;;11.00;9.00;;;;;28.93;32.94;102093.13;5095746;27;45422;-71
2023/04/17 14:31:18;;;;;;;;;9.67;8.00;;;;;28.95;33.10;102087.50;5092949;27;45751;-73
2023/04/17 14:33:43;;;;;;;;;11.33;9.67;;;;;28.98;32.60;102084.41;5095193;27;55805;-73
2023/04/17 14:36:09;;;;;;;;;10.67;9.67;;;;;29.01;32.51;102084.91;5091501;27;45564;-73
2023/04/17 14:38:34;;;;;;;;;9.50;9.50;;;;;29.02;32.41;102075.69;5088770;27;45528;-73
2023/04/17 14:41:00;;;;;;;;;8.00;8.00;;;;;29.01;32.72;102065.78;5093945;27;45398;-73
2023/04/17 14:43:25;;;;;;;;;11.00;10.33;;;;;29.05;32.82;102072.63;5089021;27;45433;-74
2023/04/17 14:45:50;;;;;;;;;10.33;10.00;;;;;29.09;32.21;102073.13;5089725;27;45477;-72
2023/04/17 14:48:18;;;;;;;;;9.67;9.00;;;;;29.11;32.88;102064.75;5092396;27;45347;-72
2023/04/17 14:50:43;;;;;;;;;9.67;8.00;;;;;29.17;33.18;102069.50;5089942;27;45788;-75
2023/04/17 14:53:08;;;;;;;;;9.67;7.00;;;;;29.18;33.02;102066.59;5099494;27;45640;-74
2023/04/17 14:55:35;;;;;;;;;9.00;9.00;;;;;29.28;32.99;102060.06;5097289;27;45632;-75
2023/04/17 14:58:05;;;;;;;;;8.67;8.67;;;;;29.34;32.59;102056.63;5095929;27;45513;-77
2023/04/17 15:00:30;;;;;;;;;9.67;9.67;;;;;29.38;32.73;102046.22;5094286;27;45612;-77
2023/04/17 15:02:56;;;;;;;;;8.67;8.67;;;;;29.44;32.60;102049.09;5095387;27;45927;-79
2023/04/17 15:05:21;;;;;;;;;12.00;12.00;;;;;29.50;32.63;102049.41;5090181;27;45434;-79
2023/04/17 15:07:47;;;;;;;;;11.67;10.33;;;;;29.43;32.05;102043.81;5089574;27;45401;-79
2023/04/17 15:10:13;;;;;;;;;12.67;12.67;;;;;29.40;31.90;102053.22;5094598;27;45455;-80
2023/04/17 15:12:38;;;;;;;;;11.33;11.33;;;;;29.34;31.67;102048.44;5093037;27;46571;-73
2023/04/17 15:15:05;;;;;;;;;12.33;11.00;;;;;29.28;32.14;102033.59;5094144;27;45685;-73
2023/04/17 15:17:30;;;;;;;;;9.00;8.33;;;;;29.31;31.73;102048.81;5091682;27;45424;-75
2023/04/17 15:19:57;;;;;;;;;11.00;9.00;;;;;29.36;31.69;102051.84;5084385;27;45474;-73
2023/04/17 15:22:22;;;;;;;;;9.67;9.67;;;;;29.36;31.97;102045.53;5093499;27;47107;-76
2023/04/17 15:24:48;;;;;;;;;9.67;8.67;;;;;29.42;31.71;102044.84;5093712;27;45450;-75
2023/04/17 15:27:13;;;;;;;;;10.00;10.00;;;;;29.49;32.05;102047.69;5094811;27;45752;-75
2023/04/17 15:29:39;;;;;;;;;12.00;10.00;;;;;29.53;31.58;102041.72;5086028;27;45361;-74
2023/04/17 15:32:04;;;;;;;;;9.00;9.00;;;;;29.55;31.84;102041.56;5093168;27;46159;-75
2023/04/17 15:34:29;;;;;;;;;11.33;11.33;;;;;29.58;32.05;102047.50;5093132;27;45508;-76
2023/04/17 15:36:56;;;;;;;;;9.00;9.00;;;;;29.55;31.55;102025.97;5095147;27;45328;-75
2023/04/17 15:39:22;;;;;;;;;8.67;8.67;;;;;29.57;31.62;102032.13;5087713;27;45660;-75
2023/04/17 15:41:48;;;;;;;;;8.33;8.33;;;;;29.58;31.40;102033.84;5094868;27;45367;-75
2023/04/17 15:44:14;;;;;;;;;11.33;11.33;;;;;29.55;32.10;102028.72;5087537;27;45672;-75
2023/04/17 15:46:39;;;;;;;;;8.67;8.67;;;;;29.55;31.67;102028.72;5094750;27;45852;-74
2023/04/17 15:49:04;;;;;;;;;7.67;7.67;;;;;29.53;31.51;102021.72;5094112;27;45458;-75
2023/04/17 15:51:30;;;;;;;;;12.00;12.00;;;;;29.52;31.95;102020.88;5090891;27;46250;-77
2023/04/17 15:53:56;;;;;;;;;15.67;13.33;;;;;29.51;31.70;102019.16;5086107;27;45539;-76
2023/04/17 15:56:21;;;;;;;;;9.67;9.00;;;;;29.43;32.00;102016.44;5094648;27;45465;-81
2023/04/17 15:58:47;;;;;;;;;12.67;11.33;;;;;29.41;31.14;102021.22;5094920;27;45699;-77
2023/04/17 16:01:12;;;;;;;;;11.00;11.00;;;;;29.30;31.21;102015.13;5093085;27;66973;-78
2023/04/17 16:03:37;;;;;;;;;6.67;6.67;;;;;29.18;30.99;101998.25;5094675;27;45676;-79
2023/04/17 16:06:04;;;;;;;;;11.00;10.00;;;;;29.17;31.02;102012.97;5093953;27;45366;-80
2023/04/17 16:08:29;;;;;;;;;10.33;8.67;;;;;29.04;31.21;102009.94;5095277;27;45527;-79
2023/04/17 16:10:55;;;;;;;;;11.67;11.67;;;;;28.98;31.27;102013.38;5094025;27;45814;-80
2023/04/17 16:13:20;;;;;;;;;9.67;9.33;;;;;28.90;31.09;102012.34;5093332;27;45481;-80
2023/04/17 16:15:45;;;;;;;;;10.33;10.33;;;;;28.85;30.77;102008.41;5087814;27;45569;-80
2023/04/17 16:18:11;;;;;;;;;12.33;12.33;;;;;28.77;30.84;102007.41;5090935;27;45319;-77
2023/04/17 16:20:38;;;;;;;;;10.67;9.00;;;;;28.71;30.81;101996.31;5092185;27;46179;-78
2023/04/17 16:23:04;;;;;;;;;11.00;11.00;;;;;28.66;31.31;101977.72;5083727;27;45445;-79
2023/04/17 16:25:29;;;;;;;;;14.00;13.67;;;;;28.61;31.12;101986.41;5082596;27;45754;-78
2023/04/17 16:27:54;;;;;;;;;17.33;16.00;;;;;28.60;30.96;101976.53;5093080;27;45543;-80
2023/04/17 16:30:20;;;;;;;;;13.00;13.00;;;;;28.56;31.36;101980.63;5093447;27;45421;-78
2023/04/17 16:32:47;;;;;;;;;13.67;13.67;;;;;28.57;31.02;101979.59;5094465;27;45429;-79
2023/04/17 16:35:13;;;;;;;;;17.00;15.33;;;;;28.51;31.09;101963.91;5094064;27;45528;-80
2023/04/17 16:37:38;;;;;;;;;15.00;13.00;;;;;28.48;31.13;101973.31;5094612;27;45496;-81
2023/04/17 16:40:04;;;;;;;;;12.67;10.67;;;;;28.48;30.76;101970.56;5093946;27;45354;-81
2023/04/17 16:42:31;;;;;;;;;15.00;12.00;;;;;28.43;30.91;101970.25;5094354;27;45379;-80
2023/04/17 16:44:57;;;;;;;;;14.00;12.67;;;;;28.41;31.00;101977.75;5090297;27;45633;-79
2023/04/17 16:47:22;;;;;;;;;14.00;13.00;;;;;28.36;31.00;101970.06;5093755;27;45564;-79
2023/04/17 16:49:47;;;;;;;;;12.00;12.00;;;;;28.32;30.69;101967.88;5090588;27;46067;-79
2023/04/17 16:52:13;;;;;;;;;14.00;13.00;;;;;28.26;31.13;101963.94;5078649;27;51100;-81
2023/04/17 16:54:38;;;;;;;;;14.00;14.00;;;;;28.26;31.40;101975.72;5073732;27;45367;-78
2023/04/17 16:57:04;;;;;;;;;12.00;10.33;;;;;28.23;30.59;101970.56;5088509;27;53510;-77
2023/04/17 16:59:30;;;;;;;;;14.00;11.00;;;;;28.19;30.70;101980.13;5092225;27;46041;-77
2023/04/17 17:01:55;;;;;;;;;12.67;10.67;;;;;28.15;30.71;101979.63;5090852;27;45441;-80
2023/04/17 17:04:20;;;;;;;;;10.33;9.67;;;;;28.12;30.59;101977.22;5086707;27;46034;-76
2023/04/17 17:06:46;;;;;;;;;13.33;12.00;;;;;28.12;30.86;101976.38;5092227;27;45457;-77
2023/04/17 17:09:11;;;;;;;;;13.33;11.00;;;;;28.12;31.34;101987.28;5090961;27;45955;-78
2023/04/17 17:11:36;;;;;;;;;16.33;12.67;;;;;28.11;30.98;101980.97;5080706;27;45482;-75
2023/04/17 17:14:02;;;;;;;;;11.33;11.33;;;;;28.14;30.86;101988.84;5081923;27;49060;-75
2023/04/17 17:16:27;;;;;;;;;12.33;11.00;;;;;28.19;31.21;101971.94;5078068;27;45935;-74